sensor_id;sensor_type;location;lat;lon;timestamp;pressure;altitude;pressure_sealevel;temperature;humidity
13011;BME280;6786;57.632;11.962;2023-03-19T00:00:33;100744.56;;;18.49;39.89
13011;BME280;6786;57.632;11.962;2023-03-19T00:03:01;100744.56;;;18.49;40.07
13011;BME280;6786;57.632;11.962;2023-03-19T00:05:29;100744.56;;;18.49;39.95
13011;BME280;6786;57.632;11.962;2023-03-19T00:07:58;100745.56;;;18.48;39.97
13011;BME280;6786;57.632;11.962;2023-03-19T00:10:26;100747.25;;;18.49;39.98
13011;BME280;6786;57.632;11.962;2023-03-19T00:12:54;100745.56;;;18.48;40.03
13011;BME280;6786;57.632;11.962;2023-03-19T00:15:23;100752.59;;;18.49;39.95
13011;BME280;6786;57.632;11.962;2023-03-19T00:17:52;100749.06;;;18.48;40.08
13011;BME280;6786;57.632;11.962;2023-03-19T00:20:22;100755.28;;;18.49;40.01
13011;BME280;6786;57.632;11.962;2023-03-19T00:22:50;100752.00;;;18.45;40.07
13011;BME280;6786;57.632;11.962;2023-03-19T00:25:18;100598.56;;;17.53;39.83
13011;BME280;6786;57.632;11.962;2023-03-19T00:27:46;100755.28;;;18.49;39.99
13011;BME280;6786;57.632;11.962;2023-03-19T00:30:15;100755.28;;;18.49;39.95
13011;BME280;6786;57.632;11.962;2023-03-19T00:32:43;100766.00;;;18.49;39.90
13011;BME280;6786;57.632;11.962;2023-03-19T00:35:13;100754.41;;;18.48;39.94
13011;BME280;6786;57.632;11.962;2023-03-19T00:37:41;100765.13;;;18.48;40.01
13011;BME280;6786;57.632;11.962;2023-03-19T00:40:10;100583.47;;;17.31;40.09
13011;BME280;6786;57.632;11.962;2023-03-19T00:42:38;100765.13;;;18.48;40.10
13011;BME280;6786;57.632;11.962;2023-03-19T00:45:08;100768.66;;;18.49;40.05
13011;BME280;6786;57.632;11.962;2023-03-19T00:47:37;100764.28;;;18.48;40.03
13011;BME280;6786;57.632;11.962;2023-03-19T00:50:05;100596.75;;;17.42;40.01
13011;BME280;6786;57.632;11.962;2023-03-19T00:52:35;100766.00;;;18.49;39.94
13011;BME280;6786;57.632;11.962;2023-03-19T00:55:04;100768.66;;;18.49;39.86
13011;BME280;6786;57.632;11.962;2023-03-19T00:57:32;100766.00;;;18.49;39.97
13011;BME280;6786;57.632;11.962;2023-03-19T01:00:00;100766.00;;;18.49;40.04
13011;BME280;6786;57.632;11.962;2023-03-19T01:02:30;100771.34;;;18.49;39.98
13011;BME280;6786;57.632;11.962;2023-03-19T01:04:58;100662.44;;;17.88;39.94
13011;BME280;6786;57.632;11.962;2023-03-19T01:07:27;100587.84;;;17.43;39.94
13011;BME280;6786;57.632;11.962;2023-03-19T01:09:56;100766.84;;;18.49;39.95
13011;BME280;6786;57.632;11.962;2023-03-19T01:12:24;100767.94;;;18.47;40.17
13011;BME280;6786;57.632;11.962;2023-03-19T01:14:53;100650.56;;;17.81;39.96
13011;BME280;6786;57.632;11.962;2023-03-19T01:17:21;100760.91;;;18.46;40.08
13011;BME280;6786;57.632;11.962;2023-03-19T01:19:49;100771.59;;;18.46;40.00
13011;BME280;6786;57.632;11.962;2023-03-19T01:22:18;100771.34;;;18.49;40.03
13011;BME280;6786;57.632;11.962;2023-03-19T01:24:46;100766.00;;;18.49;40.04
13011;BME280;6786;57.632;11.962;2023-03-19T01:27:15;100764.44;;;18.46;40.14
13011;BME280;6786;57.632;11.962;2023-03-19T01:29:43;100771.34;;;18.49;40.07
13011;BME280;6786;57.632;11.962;2023-03-19T01:32:12;100625.91;;;17.56;39.93
13011;BME280;6786;57.632;11.962;2023-03-19T01:34:40;100755.28;;;18.49;40.12
13011;BME280;6786;57.632;11.962;2023-03-19T01:37:08;100686.47;;;17.99;40.03
13011;BME280;6786;57.632;11.962;2023-03-19T01:39:36;100753.59;;;18.48;40.03
13011;BME280;6786;57.632;11.962;2023-03-19T01:42:05;100757.97;;;18.49;40.13
13011;BME280;6786;57.632;11.962;2023-03-19T01:44:36;100760.63;;;18.49;39.99
13011;BME280;6786;57.632;11.962;2023-03-19T01:47:09;100760.63;;;18.49;40.10
13011;BME280;6786;57.632;11.962;2023-03-19T01:49:42;100760.63;;;18.49;40.02
13011;BME280;6786;57.632;11.962;2023-03-19T01:52:14;100694.94;;;18.04;39.89
13011;BME280;6786;57.632;11.962;2023-03-19T01:54:43;100668.97;;;17.95;40.07
13011;BME280;6786;57.632;11.962;2023-03-19T01:57:13;100687.91;;;18.03;40.06
13011;BME280;6786;57.632;11.962;2023-03-19T01:59:46;100752.13;;;18.44;40.14
13011;BME280;6786;57.632;11.962;2023-03-19T02:02:19;100766.00;;;18.49;40.08
13011;BME280;6786;57.632;11.962;2023-03-19T02:04:51;100751.44;;;18.31;40.08
13011;BME280;6786;57.632;11.962;2023-03-19T02:07:21;100758.22;;;18.46;40.05
13011;BME280;6786;57.632;11.962;2023-03-19T02:09:49;100766.00;;;18.49;40.08
13011;BME280;6786;57.632;11.962;2023-03-19T02:12:17;100775.00;;;18.48;40.01
13011;BME280;6786;57.632;11.962;2023-03-19T02:14:47;100764.28;;;18.48;40.16
13011;BME280;6786;57.632;11.962;2023-03-19T02:17:15;100688.41;;;17.97;40.02
13011;BME280;6786;57.632;11.962;2023-03-19T02:19:49;100766.97;;;18.48;40.18
13011;BME280;6786;57.632;11.962;2023-03-19T02:22:22;100769.66;;;18.48;40.13
13011;BME280;6786;57.632;11.962;2023-03-19T02:24:55;100776.69;;;18.49;39.94
13011;BME280;6786;57.632;11.962;2023-03-19T02:27:26;100770.47;;;18.48;40.07
13011;BME280;6786;57.632;11.962;2023-03-19T02:29:54;100770.47;;;18.48;40.17
13011;BME280;6786;57.632;11.962;2023-03-19T02:32:22;100774.00;;;18.49;40.13
13011;BME280;6786;57.632;11.962;2023-03-19T02:34:52;100695.97;;;17.92;40.12
13011;BME280;6786;57.632;11.962;2023-03-19T02:37:23;100776.69;;;18.49;40.08
13011;BME280;6786;57.632;11.962;2023-03-19T02:39:56;100771.34;;;18.49;40.12
13011;BME280;6786;57.632;11.962;2023-03-19T02:42:28;100774.00;;;18.49;39.74
13011;BME280;6786;57.632;11.962;2023-03-19T02:44:56;100769.66;;;18.48;40.12
13011;BME280;6786;57.632;11.962;2023-03-19T02:47:25;100780.34;;;18.48;40.05
13011;BME280;6786;57.632;11.962;2023-03-19T02:49:54;100755.06;;;18.41;40.14
13011;BME280;6786;57.632;11.962;2023-03-19T02:52:22;100765.13;;;18.48;40.12
13011;BME280;6786;57.632;11.962;2023-03-19T02:54:50;100769.66;;;18.48;40.18
13011;BME280;6786;57.632;11.962;2023-03-19T02:57:18;100775.84;;;18.48;40.13
13011;BME280;6786;57.632;11.962;2023-03-19T02:59:48;100766.00;;;18.49;40.20
13011;BME280;6786;57.632;11.962;2023-03-19T03:02:16;100777.69;;;18.48;40.15
13011;BME280;6786;57.632;11.962;2023-03-19T03:04:44;100780.34;;;18.48;40.17
13011;BME280;6786;57.632;11.962;2023-03-19T03:07:13;100604.09;;;17.40;40.06
13011;BME280;6786;57.632;11.962;2023-03-19T03:09:41;100771.34;;;18.49;40.15
13011;BME280;6786;57.632;11.962;2023-03-19T03:12:09;100604.09;;;17.40;40.00
13011;BME280;6786;57.632;11.962;2023-03-19T03:14:37;100773.03;;;18.50;40.06
13011;BME280;6786;57.632;11.962;2023-03-19T03:17:07;100774.00;;;18.49;40.05
13011;BME280;6786;57.632;11.962;2023-03-19T03:19:36;100782.03;;;18.49;40.17
13011;BME280;6786;57.632;11.962;2023-03-19T03:22:04;100781.06;;;18.50;40.12
13011;BME280;6786;57.632;11.962;2023-03-19T03:24:32;100783.03;;;18.48;40.12
13011;BME280;6786;57.632;11.962;2023-03-19T03:27:00;100784.72;;;18.49;40.18
13011;BME280;6786;57.632;11.962;2023-03-19T03:29:28;100780.34;;;18.48;40.15
13011;BME280;6786;57.632;11.962;2023-03-19T03:31:57;100776.69;;;18.49;40.14
13011;BME280;6786;57.632;11.962;2023-03-19T03:34:26;100781.06;;;18.50;40.16
13011;BME280;6786;57.632;11.962;2023-03-19T03:36:54;100777.56;;;18.49;40.18
13011;BME280;6786;57.632;11.962;2023-03-19T03:39:22;100782.03;;;18.49;40.05
13011;BME280;6786;57.632;11.962;2023-03-19T03:41:50;100776.69;;;18.49;40.23
13011;BME280;6786;57.632;11.962;2023-03-19T03:44:18;100666.63;;;17.81;40.12
13011;BME280;6786;57.632;11.962;2023-03-19T03:46:47;100781.91;;;18.50;40.12
13011;BME280;6786;57.632;11.962;2023-03-19T03:49:15;100783.72;;;18.50;40.32
13011;BME280;6786;57.632;11.962;2023-03-19T03:51:44;100765.50;;;18.44;40.08
13011;BME280;6786;57.632;11.962;2023-03-19T03:54:12;100769.38;;;18.51;40.16
13011;BME280;6786;57.632;11.962;2023-03-19T03:56:41;100768.53;;;18.50;40.21
13011;BME280;6786;57.632;11.962;2023-03-19T03:59:09;100781.06;;;18.50;40.25
13011;BME280;6786;57.632;11.962;2023-03-19T04:01:38;100778.38;;;18.50;40.09
13011;BME280;6786;57.632;11.962;2023-03-19T04:04:06;100774.75;;;18.51;40.14
13011;BME280;6786;57.632;11.962;2023-03-19T04:06:34;100780.09;;;18.51;40.21
13011;BME280;6786;57.632;11.962;2023-03-19T04:09:04;100784.59;;;18.50;40.15
13011;BME280;6786;57.632;11.962;2023-03-19T04:11:33;100769.19;;;18.43;40.12
13011;BME280;6786;57.632;11.962;2023-03-19T04:14:01;100707.34;;;18.05;40.25
13011;BME280;6786;57.632;11.962;2023-03-19T04:16:30;100786.41;;;18.50;40.19
13011;BME280;6786;57.632;11.962;2023-03-19T04:18:58;100784.59;;;18.50;40.22
13011;BME280;6786;57.632;11.962;2023-03-19T04:21:26;100790.81;;;18.51;40.16
13011;BME280;6786;57.632;11.962;2023-03-19T04:23:55;100783.72;;;18.50;40.29
13011;BME280;6786;57.632;11.962;2023-03-19T04:26:24;100783.72;;;18.50;40.23
13011;BME280;6786;57.632;11.962;2023-03-19T04:28:53;100799.78;;;18.50;40.28
13011;BME280;6786;57.632;11.962;2023-03-19T04:31:21;100802.47;;;18.50;40.18
13011;BME280;6786;57.632;11.962;2023-03-19T04:33:49;100804.19;;;18.51;40.24
13011;BME280;6786;57.632;11.962;2023-03-19T04:36:17;100794.44;;;18.50;40.13
13011;BME280;6786;57.632;11.962;2023-03-19T04:38:45;100789.94;;;18.50;40.29
13011;BME280;6786;57.632;11.962;2023-03-19T04:41:13;100779.88;;;18.43;40.16
13011;BME280;6786;57.632;11.962;2023-03-19T04:43:44;100789.34;;;18.47;40.18
13011;BME280;6786;57.632;11.962;2023-03-19T04:46:12;100794.44;;;18.50;40.30
13011;BME280;6786;57.632;11.962;2023-03-19T04:48:40;100803.31;;;18.50;40.20
13011;BME280;6786;57.632;11.962;2023-03-19T04:51:08;100799.78;;;18.50;40.22
13011;BME280;6786;57.632;11.962;2023-03-19T04:53:37;100796.97;;;18.51;40.24
13011;BME280;6786;57.632;11.962;2023-03-19T04:56:06;100788.25;;;18.49;40.20
13011;BME280;6786;57.632;11.962;2023-03-19T04:58:34;100793.75;;;18.48;40.18
13011;BME280;6786;57.632;11.962;2023-03-19T05:01:04;100801.50;;;18.51;40.12
13011;BME280;6786;57.632;11.962;2023-03-19T05:03:32;100796.97;;;18.51;40.24
13011;BME280;6786;57.632;11.962;2023-03-19T05:06:00;100801.50;;;18.51;40.21
13011;BME280;6786;57.632;11.962;2023-03-19T05:08:28;100802.34;;;18.51;40.10
13011;BME280;6786;57.632;11.962;2023-03-19T05:10:56;100622.66;;;17.42;40.18
13011;BME280;6786;57.632;11.962;2023-03-19T05:13:24;100801.50;;;18.51;40.24
13011;BME280;6786;57.632;11.962;2023-03-19T05:15:53;100789.94;;;18.50;40.35
13011;BME280;6786;57.632;11.962;2023-03-19T05:18:24;100793.59;;;18.49;40.17
13011;BME280;6786;57.632;11.962;2023-03-19T05:20:53;100799.78;;;18.50;40.27
13011;BME280;6786;57.632;11.962;2023-03-19T05:23:21;100805.13;;;18.50;40.19
13011;BME280;6786;57.632;11.962;2023-03-19T05:25:49;100609.69;;;17.37;40.17
13011;BME280;6786;57.632;11.962;2023-03-19T05:28:18;100791.56;;;18.42;40.22
13011;BME280;6786;57.632;11.962;2023-03-19T05:30:46;100815.84;;;18.50;40.31
13011;BME280;6786;57.632;11.962;2023-03-19T05:33:14;100815.84;;;18.50;40.21
13011;BME280;6786;57.632;11.962;2023-03-19T05:35:44;100640.00;;;17.36;40.29
13011;BME280;6786;57.632;11.962;2023-03-19T05:38:12;100817.81;;;18.48;40.30
13011;BME280;6786;57.632;11.962;2023-03-19T05:40:41;100817.56;;;18.51;40.29
13011;BME280;6786;57.632;11.962;2023-03-19T05:43:10;100816.84;;;18.49;40.36
13011;BME280;6786;57.632;11.962;2023-03-19T05:45:38;100810.50;;;18.50;40.21
13011;BME280;6786;57.632;11.962;2023-03-19T05:48:08;100828.28;;;18.51;40.26
13011;BME280;6786;57.632;11.962;2023-03-19T05:50:36;100729.75;;;17.93;40.23
13011;BME280;6786;57.632;11.962;2023-03-19T05:53:05;100821.94;;;18.52;40.17
13011;BME280;6786;57.632;11.962;2023-03-19T05:55:33;100828.28;;;18.51;40.21
13011;BME280;6786;57.632;11.962;2023-03-19T05:58:02;100824.59;;;18.52;40.25
13011;BME280;6786;57.632;11.962;2023-03-19T06:00:30;100822.91;;;18.51;40.25
13011;BME280;6786;57.632;11.962;2023-03-19T06:02:58;100816.84;;;18.49;40.29
13011;BME280;6786;57.632;11.962;2023-03-19T06:05:26;100820.25;;;18.51;40.40
13011;BME280;6786;57.632;11.962;2023-03-19T06:07:54;100747.50;;;17.94;40.13
13011;BME280;6786;57.632;11.962;2023-03-19T06:10:24;100827.28;;;18.52;40.28
13011;BME280;6786;57.632;11.962;2023-03-19T06:12:52;100829.97;;;18.52;40.36
13011;BME280;6786;57.632;11.962;2023-03-19T06:15:21;100833.63;;;18.51;40.23
13011;BME280;6786;57.632;11.962;2023-03-19T06:17:49;100722.94;;;17.89;40.39
13011;BME280;6786;57.632;11.962;2023-03-19T06:20:17;100831.91;;;18.50;40.29
13011;BME280;6786;57.632;11.962;2023-03-19T06:22:45;100651.09;;;17.43;40.52
13011;BME280;6786;57.632;11.962;2023-03-19T06:25:13;100835.31;;;18.52;40.29
13011;BME280;6786;57.632;11.962;2023-03-19T06:27:43;100827.41;;;18.50;40.28
13011;BME280;6786;57.632;11.962;2023-03-19T06:30:12;100833.63;;;18.51;40.32
13011;BME280;6786;57.632;11.962;2023-03-19T06:32:40;100759.72;;;18.07;40.25
13011;BME280;6786;57.632;11.962;2023-03-19T06:35:09;100833.63;;;18.51;40.29
13011;BME280;6786;57.632;11.962;2023-03-19T06:37:37;100835.31;;;18.52;40.41
13011;BME280;6786;57.632;11.962;2023-03-19T06:40:06;100829.88;;;18.42;40.36
13011;BME280;6786;57.632;11.962;2023-03-19T06:42:34;100846.88;;;18.52;40.30
13011;BME280;6786;57.632;11.962;2023-03-19T06:45:05;100840.66;;;18.52;40.32
13011;BME280;6786;57.632;11.962;2023-03-19T06:47:34;100829.31;;;18.39;40.35
13011;BME280;6786;57.632;11.962;2023-03-19T06:50:03;100781.72;;;18.11;40.29
13011;BME280;6786;57.632;11.962;2023-03-19T06:52:31;100766.44;;;18.02;40.24
13011;BME280;6786;57.632;11.962;2023-03-19T06:54:59;100849.69;;;18.51;40.22
13011;BME280;6786;57.632;11.962;2023-03-19T06:57:27;100861.09;;;18.53;40.23
13011;BME280;6786;57.632;11.962;2023-03-19T06:59:55;100780.75;;;18.01;40.32
13011;BME280;6786;57.632;11.962;2023-03-19T07:02:25;100862.06;;;18.52;40.38
13011;BME280;6786;57.632;11.962;2023-03-19T07:04:53;100856.72;;;18.52;40.36
13011;BME280;6786;57.632;11.962;2023-03-19T07:07:21;100858.41;;;18.53;40.38
13011;BME280;6786;57.632;11.962;2023-03-19T07:09:49;100859.19;;;18.44;40.34
13011;BME280;6786;57.632;11.962;2023-03-19T07:12:17;100851.38;;;18.52;40.37
13011;BME280;6786;57.632;11.962;2023-03-19T07:14:46;100850.50;;;18.51;40.34
13011;BME280;6786;57.632;11.962;2023-03-19T07:17:14;100855.03;;;18.51;40.30
13011;BME280;6786;57.632;11.962;2023-03-19T07:19:43;100847.00;;;18.51;40.36
13011;BME280;6786;57.632;11.962;2023-03-19T07:22:11;100844.31;;;18.51;40.50
13011;BME280;6786;57.632;11.962;2023-03-19T07:24:40;100839.94;;;18.50;40.29
13011;BME280;6786;57.632;11.962;2023-03-19T07:27:08;100852.22;;;18.52;40.44
13011;BME280;6786;57.632;11.962;2023-03-19T07:29:36;100847.97;;;18.50;40.29
13011;BME280;6786;57.632;11.962;2023-03-19T07:32:05;100759.38;;;18.01;40.45
13011;BME280;6786;57.632;11.962;2023-03-19T07:34:33;100853.91;;;18.53;40.45
13011;BME280;6786;57.632;11.962;2023-03-19T07:37:03;100860.13;;;18.54;40.41
13011;BME280;6786;57.632;11.962;2023-03-19T07:39:32;100853.06;;;18.53;40.40
13011;BME280;6786;57.632;11.962;2023-03-19T07:42:00;100847.72;;;18.53;40.44
13011;BME280;6786;57.632;11.962;2023-03-19T07:44:28;100862.06;;;18.52;40.42
13011;BME280;6786;57.632;11.962;2023-03-19T07:46:56;100842.34;;;18.53;40.50
13011;BME280;6786;57.632;11.962;2023-03-19T07:49:25;100837.00;;;18.53;40.33
13011;BME280;6786;57.632;11.962;2023-03-19T07:51:53;100826.28;;;18.53;40.47
13011;BME280;6786;57.632;11.962;2023-03-19T07:54:23;100837.00;;;18.53;40.53
13011;BME280;6786;57.632;11.962;2023-03-19T07:56:51;100827.16;;;18.53;40.50
13011;BME280;6786;57.632;11.962;2023-03-19T07:59:19;100755.75;;;18.02;40.32
13011;BME280;6786;57.632;11.962;2023-03-19T08:01:47;100839.81;;;18.51;40.48
13011;BME280;6786;57.632;11.962;2023-03-19T08:04:16;100834.31;;;18.53;40.53
13011;BME280;6786;57.632;11.962;2023-03-19T08:06:44;100800.59;;;18.30;40.49
13011;BME280;6786;57.632;11.962;2023-03-19T08:09:12;100838.84;;;18.52;40.58
13011;BME280;6786;57.632;11.962;2023-03-19T08:11:42;100841.41;;;18.54;40.42
13011;BME280;6786;57.632;11.962;2023-03-19T08:14:10;100853.78;;;18.55;40.57
13011;BME280;6786;57.632;11.962;2023-03-19T08:16:38;100844.06;;;18.54;40.59
13011;BME280;6786;57.632;11.962;2023-03-19T08:19:07;100845.03;;;18.53;40.49
13011;BME280;6786;57.632;11.962;2023-03-19T08:21:35;100724.91;;;17.87;40.51
13011;BME280;6786;57.632;11.962;2023-03-19T08:24:04;100681.03;;;17.57;40.55
13011;BME280;6786;57.632;11.962;2023-03-19T08:26:32;100833.38;;;18.54;40.51
13011;BME280;6786;57.632;11.962;2023-03-19T08:29:05;100828.00;;;18.54;40.74
13011;BME280;6786;57.632;11.962;2023-03-19T08:31:34;100833.38;;;18.54;40.46
13011;BME280;6786;57.632;11.962;2023-03-19T08:34:02;100833.38;;;18.54;40.48
13011;BME280;6786;57.632;11.962;2023-03-19T08:36:30;100838.72;;;18.54;40.57
13011;BME280;6786;57.632;11.962;2023-03-19T08:38:59;100839.53;;;18.54;40.56
13011;BME280;6786;57.632;11.962;2023-03-19T08:41:27;100840.41;;;18.55;40.63
13011;BME280;6786;57.632;11.962;2023-03-19T08:43:55;100844.06;;;18.54;40.46
13011;BME280;6786;57.632;11.962;2023-03-19T08:46:24;100840.41;;;18.55;40.70
13011;BME280;6786;57.632;11.962;2023-03-19T08:48:55;100861.81;;;18.55;40.58
13011;BME280;6786;57.632;11.962;2023-03-19T08:51:23;100761.09;;;18.02;40.50
13011;BME280;6786;57.632;11.962;2023-03-19T08:53:52;100748.41;;;18.04;40.49
13011;BME280;6786;57.632;11.962;2023-03-19T08:56:20;100688.53;;;17.63;40.79
13011;BME280;6786;57.632;11.962;2023-03-19T08:58:49;100656.19;;;17.46;40.73
13011;BME280;6786;57.632;11.962;2023-03-19T09:01:17;100835.06;;;18.55;40.61
13011;BME280;6786;57.632;11.962;2023-03-19T09:03:46;100834.06;;;18.56;40.61
13011;BME280;6786;57.632;11.962;2023-03-19T09:06:15;100835.91;;;18.55;40.65
13011;BME280;6786;57.632;11.962;2023-03-19T09:08:43;100832.50;;;18.53;40.64
13011;BME280;6786;57.632;11.962;2023-03-19T09:11:12;100828.84;;;18.54;40.84
13011;BME280;6786;57.632;11.962;2023-03-19T09:13:42;100660.53;;;17.47;40.64
13011;BME280;6786;57.632;11.962;2023-03-19T09:16:11;100752.34;;;18.00;40.67
13011;BME280;6786;57.632;11.962;2023-03-19T09:18:39;100843.81;;;18.57;40.78
13011;BME280;6786;57.632;11.962;2023-03-19T09:21:09;100820.25;;;18.51;40.77
13011;BME280;6786;57.632;11.962;2023-03-19T09:23:37;100835.06;;;18.55;40.67
13011;BME280;6786;57.632;11.962;2023-03-19T09:26:06;100837.72;;;18.55;40.85
13011;BME280;6786;57.632;11.962;2023-03-19T09:28:34;100829.69;;;18.55;40.87
13011;BME280;6786;57.632;11.962;2023-03-19T09:31:07;100836.19;;;18.52;40.81
13011;BME280;6786;57.632;11.962;2023-03-19T09:33:37;100845.75;;;18.55;40.94
13011;BME280;6786;57.632;11.962;2023-03-19T09:36:05;100835.56;;;18.49;40.83
13011;BME280;6786;57.632;11.962;2023-03-19T09:38:35;100859.16;;;18.55;40.81
13011;BME280;6786;57.632;11.962;2023-03-19T09:41:08;100852.09;;;18.54;40.78
13011;BME280;6786;57.632;11.962;2023-03-19T09:43:49;100861.81;;;18.55;41.01
13011;BME280;6786;57.632;11.962;2023-03-19T09:46:28;100852.81;;;18.56;40.89
13011;BME280;6786;57.632;11.962;2023-03-19T09:49:04;100785.84;;;18.04;41.01
13011;BME280;6786;57.632;11.962;2023-03-19T09:51:40;100856.47;;;18.55;40.98
13011;BME280;6786;57.632;11.962;2023-03-19T09:54:26;100855.47;;;18.56;41.34
13011;BME280;6786;57.632;11.962;2023-03-19T09:56:55;100857.47;;;18.54;41.01
13011;BME280;6786;57.632;11.962;2023-03-19T09:59:25;100870.72;;;18.55;40.92
13011;BME280;6786;57.632;11.962;2023-03-19T10:02:02;100772.88;;;17.99;41.06
13011;BME280;6786;57.632;11.962;2023-03-19T10:04:41;100849.44;;;18.54;40.89
13011;BME280;6786;57.632;11.962;2023-03-19T10:07:25;100847.72;;;18.53;41.47
13011;BME280;6786;57.632;11.962;2023-03-19T10:10:13;100678.41;;;17.46;41.37
13011;BME280;6786;57.632;11.962;2023-03-19T10:12:55;100856.47;;;18.55;41.20
13011;BME280;6786;57.632;11.962;2023-03-19T10:15:28;100857.59;;;18.52;40.94
13011;BME280;6786;57.632;11.962;2023-03-19T10:18:01;100773.97;;;17.97;40.87
13011;BME280;6786;57.632;11.962;2023-03-19T10:20:41;100855.03;;;18.51;41.21
13011;BME280;6786;57.632;11.962;2023-03-19T10:23:36;100860.13;;;18.54;41.44
13011;BME280;6786;57.632;11.962;2023-03-19T10:26:11;100856.72;;;18.52;41.00
13011;BME280;6786;57.632;11.962;2023-03-19T10:28:42;100862.81;;;18.54;40.98
13011;BME280;6786;57.632;11.962;2023-03-19T10:31:25;100855.03;;;18.51;41.44
13011;BME280;6786;57.632;11.962;2023-03-19T10:34:07;100867.19;;;18.55;41.45
13011;BME280;6786;57.632;11.962;2023-03-19T10:36:39;100858.41;;;18.53;41.03
13011;BME280;6786;57.632;11.962;2023-03-19T10:39:07;100860.13;;;18.54;41.11
13011;BME280;6786;57.632;11.962;2023-03-19T10:41:47;100849.44;;;18.54;41.25
13011;BME280;6786;57.632;11.962;2023-03-19T10:44:26;100703.38;;;17.68;41.37
13011;BME280;6786;57.632;11.962;2023-03-19T10:47:08;100865.50;;;18.54;41.06
13011;BME280;6786;57.632;11.962;2023-03-19T10:49:36;100849.44;;;18.54;40.94
13011;BME280;6786;57.632;11.962;2023-03-19T10:52:06;100861.94;;;18.53;41.09
13011;BME280;6786;57.632;11.962;2023-03-19T10:54:43;100870.84;;;18.54;41.15
13011;BME280;6786;57.632;11.962;2023-03-19T10:57:24;100861.81;;;18.55;41.44
13011;BME280;6786;57.632;11.962;2023-03-19T10:59:52;100862.06;;;18.52;40.95
13011;BME280;6786;57.632;11.962;2023-03-19T11:02:23;100860.13;;;18.54;41.21
13011;BME280;6786;57.632;11.962;2023-03-19T11:05:07;100861.81;;;18.55;41.44
13011;BME280;6786;57.632;11.962;2023-03-19T11:07:49;100778.59;;;17.95;41.01
13011;BME280;6786;57.632;11.962;2023-03-19T11:10:19;100869.00;;;18.54;41.06
13011;BME280;6786;57.632;11.962;2023-03-19T11:12:54;100845.75;;;18.55;41.20
13011;BME280;6786;57.632;11.962;2023-03-19T11:15:27;100764.47;;;18.04;41.31
13011;BME280;6786;57.632;11.962;2023-03-19T11:17:57;100763.28;;;17.97;41.13
13011;BME280;6786;57.632;11.962;2023-03-19T11:20:31;100653.84;;;17.41;41.26
13011;BME280;6786;57.632;11.962;2023-03-19T11:23:01;100849.44;;;18.54;41.20
13011;BME280;6786;57.632;11.962;2023-03-19T11:25:34;100844.91;;;18.54;41.22
13011;BME280;6786;57.632;11.962;2023-03-19T11:28:07;100845.75;;;18.55;41.33
13011;BME280;6786;57.632;11.962;2023-03-19T11:30:45;100842.34;;;18.53;41.33
13011;BME280;6786;57.632;11.962;2023-03-19T11:33:36;100851.13;;;18.55;41.40
13011;BME280;6786;57.632;11.962;2023-03-19T11:36:11;100852.09;;;18.54;41.16
13011;BME280;6786;57.632;11.962;2023-03-19T11:38:59;100847.44;;;18.56;41.34
13011;BME280;6786;57.632;11.962;2023-03-19T11:41:39;100744.69;;;17.95;41.50
13011;BME280;6786;57.632;11.962;2023-03-19T11:44:16;100838.72;;;18.54;41.34
13011;BME280;6786;57.632;11.962;2023-03-19T11:46:51;100849.44;;;18.54;41.20
13011;BME280;6786;57.632;11.962;2023-03-19T11:49:52;100838.72;;;18.54;41.94
13011;BME280;6786;57.632;11.962;2023-03-19T11:52:29;100731.03;;;17.78;41.29
13011;BME280;6786;57.632;11.962;2023-03-19T11:55:15;100764.22;;;18.07;41.62
13011;BME280;6786;57.632;11.962;2023-03-19T11:58:00;100840.66;;;18.52;41.57
13011;BME280;6786;57.632;11.962;2023-03-19T12:00:35;100843.22;;;18.53;41.40
13011;BME280;6786;57.632;11.962;2023-03-19T12:03:30;100835.19;;;18.53;41.70
13011;BME280;6786;57.632;11.962;2023-03-19T12:06:08;100849.44;;;18.54;41.33
13011;BME280;6786;57.632;11.962;2023-03-19T12:08:44;100838.84;;;18.52;41.34
13011;BME280;6786;57.632;11.962;2023-03-19T12:11:21;100830.69;;;18.54;41.22
13011;BME280;6786;57.632;11.962;2023-03-19T12:14:01;100824.34;;;18.55;41.65
13011;BME280;6786;57.632;11.962;2023-03-19T12:16:47;100823.34;;;18.56;41.60
13011;BME280;6786;57.632;11.962;2023-03-19T12:22:19;100814.63;;;18.54;41.40
13011;BME280;6786;57.632;11.962;2023-03-19T12:25:02;100808.28;;;18.55;41.67
13011;BME280;6786;57.632;11.962;2023-03-19T12:27:37;100727.53;;;17.98;41.35
13011;BME280;6786;57.632;11.962;2023-03-19T12:30:17;100795.91;;;18.54;41.68
13011;BME280;6786;57.632;11.962;2023-03-19T12:33:01;100795.91;;;18.54;41.90
13011;BME280;6786;57.632;11.962;2023-03-19T12:35:36;100795.91;;;18.54;41.36
13011;BME280;6786;57.632;11.962;2023-03-19T12:38:09;100819.00;;;18.55;41.48
13011;BME280;6786;57.632;11.962;2023-03-19T12:40:42;100792.22;;;18.55;41.42
13011;BME280;6786;57.632;11.962;2023-03-19T12:43:16;100797.59;;;18.55;41.39
13011;BME280;6786;57.632;11.962;2023-03-19T12:45:47;100788.81;;;18.53;41.43
13011;BME280;6786;57.632;11.962;2023-03-19T12:48:22;100799.53;;;18.53;41.61
13011;BME280;6786;57.632;11.962;2023-03-19T12:50:56;100797.59;;;18.55;41.42
13011;BME280;6786;57.632;11.962;2023-03-19T12:53:33;100797.59;;;18.55;41.54
13011;BME280;6786;57.632;11.962;2023-03-19T12:56:08;100800.25;;;18.55;41.68
13011;BME280;6786;57.632;11.962;2023-03-19T12:58:50;100792.22;;;18.55;41.72
13011;BME280;6786;57.632;11.962;2023-03-19T13:01:26;100787.88;;;18.54;41.62
13011;BME280;6786;57.632;11.962;2023-03-19T13:04:03;100782.38;;;18.55;41.62
13011;BME280;6786;57.632;11.962;2023-03-19T13:06:34;100783.22;;;18.56;41.57
13011;BME280;6786;57.632;11.962;2023-03-19T13:09:07;100772.50;;;18.56;41.58
13011;BME280;6786;57.632;11.962;2023-03-19T13:11:45;100772.50;;;18.56;41.64